Time;durP1;ratioP1;P1;durP2;ratioP2;P2;SDS_P1;SDS_P2;PMS_P1;PMS_P2;Temp;Humidity;BMP_temperature;BMP_pressure;BME280_temperature;BME280_humidity;BME280_pressure;Samples;Min_cycle;Max_cycle;Signal;HPM_P1;HPM_P2
2024/02/21 01:19:42;;;;;;;18.27;5.35;;;;;;;9.37;66.18;100822.84;6204906;22;99167;-81
2024/02/21 01:22:08;;;;;;;22.67;5.78;;;;;;;9.44;66.07;100820.03;6188527;22;96778;-80
2024/02/21 01:24:34;;;;;;;22.50;6.90;;;;;;;9.37;66.38;100821.06;6161804;22;97319;-81
2024/02/21 01:27:00;;;;;;;21.92;5.20;;;;;;;9.30;66.13;100798.50;6188086;22;98180;-81
2024/02/21 01:29:25;;;;;;;17.50;5.47;;;;;;;9.30;66.82;100817.69;6162708;22;96710;-79
2024/02/21 01:31:51;;;;;;;13.60;4.78;;;;;;;9.33;67.06;100802.81;6162268;22;97126;-80
2024/02/21 01:34:16;;;;;;;16.58;4.93;;;;;;;9.40;67.45;100815.75;6162298;22;101275;-79
2024/02/21 01:36:42;;;;;;;16.65;4.75;;;;;;;9.27;67.49;100788.94;6161954;22;101113;-80
2024/02/21 01:39:08;;;;;;;21.13;5.43;;;;;;;9.42;67.89;100813.09;6162649;22;96711;-80
2024/02/21 01:41:33;;;;;;;16.52;4.85;;;;;;;9.49;67.52;100806.84;6137890;22;96815;-79
2024/02/21 01:43:59;;;;;;;20.13;5.30;;;;;;;9.40;67.81;100801.81;6162190;22;100952;-80
2024/02/21 01:46:28;;;;;;;19.13;5.63;;;;;;;9.42;68.33;100807.84;6188108;22;97309;-79
2024/02/21 01:48:55;;;;;;;15.40;4.90;;;;;;;9.38;67.76;100787.88;6162820;22;97196;-79
2024/02/21 01:51:21;;;;;;;17.45;4.63;;;;;;;9.37;68.33;100801.88;6137340;22;97066;-79
2024/02/21 01:53:47;;;;;;;17.83;4.88;;;;;;;9.42;68.20;100795.59;6161968;22;97419;-81
2024/02/21 01:56:13;;;;;;;16.48;4.55;;;;;;;9.28;68.50;100774.97;6137496;22;101148;-79
2024/02/21 01:58:40;;;;;;;15.98;4.47;;;;;;;9.40;68.29;100783.47;6162181;22;96721;-79
2024/02/21 02:01:06;;;;;;;20.30;5.22;;;;;;;9.39;68.15;100779.09;6162786;22;97282;-80
2024/02/21 02:03:32;;;;;;;16.38;4.63;;;;;;;9.32;67.97;100749.56;6162102;22;98558;-80
2024/02/21 02:05:57;;;;;;;20.08;5.15;;;;;;;9.37;67.84;100775.66;6137306;22;101246;-81
2024/02/21 02:08:23;;;;;;;14.45;5.32;;;;;;;9.29;68.19;100770.59;6187450;22;96733;-79
2024/02/21 02:10:49;;;;;;;17.98;5.63;;;;;;;9.22;68.32;100756.75;6162213;22;97210;-80
2024/02/21 02:13:15;;;;;;;20.50;5.30;;;;;;;9.22;68.46;100733.19;6162544;22;97495;-80
2024/02/21 02:15:41;;;;;;;19.77;5.43;;;;;;;9.41;67.93;100759.81;6187168;22;97767;-80
2024/02/21 02:18:06;;;;;;;28.02;6.82;;;;;;;9.25;67.81;100732.22;6137300;22;97204;-80
2024/02/21 02:20:32;;;;;;;14.52;5.18;;;;;;;9.32;67.99;100757.41;6136683;22;96795;-80
2024/02/21 02:22:59;;;;;;;18.58;5.32;;;;;;;9.20;67.67;100721.88;6162316;22;101684;-80
2024/02/21 02:25:26;;;;;;;17.60;4.82;;;;;;;9.38;67.44;100748.56;6186689;22;101424;-81
2024/02/21 02:27:52;;;;;;;17.08;5.45;;;;;;;9.36;67.73;100751.19;6137614;22;96995;-80
2024/02/21 02:30:17;;;;;;;18.67;5.43;;;;;;;9.25;68.02;100729.63;6162051;22;97155;-80
2024/02/21 02:32:46;;;;;;;16.20;6.57;;;;;;;9.29;67.64;100732.16;6214690;22;97753;-80
2024/02/21 02:35:11;;;;;;;17.38;4.80;;;;;;;9.43;67.67;100747.56;6161645;22;99750;-81
2024/02/21 02:37:38;;;;;;;14.18;6.43;;;;;;;9.27;67.61;100720.81;6162080;22;96723;-80
2024/02/21 02:40:06;;;;;;;17.48;5.47;;;;;;;9.09;67.76;100704.66;6187199;22;97559;-81
2024/02/21 02:42:31;;;;;;;20.40;5.60;;;;;;;9.30;67.58;100735.63;6187852;22;97947;-80
2024/02/21 02:44:57;;;;;;;18.50;5.90;;;;;;;9.32;67.31;100728.59;6161637;22;101593;-81
2024/02/21 02:47:23;;;;;;;18.20;6.50;;;;;;;9.26;67.06;100726.97;6137601;22;96695;-81
2024/02/21 02:49:50;;;;;;;17.90;5.80;;;;;;;9.19;67.29;100722.78;6161605;22;97050;-80
2024/02/21 02:52:17;;;;;;;14.80;5.22;;;;;;;9.26;66.87;100719.13;6161960;22;100980;-81
2024/02/21 02:54:43;;;;;;;16.42;5.32;;;;;;;9.20;66.75;100714.00;6161888;22;101526;-81
2024/02/21 02:57:09;;;;;;;15.40;5.70;;;;;;;9.16;67.16;100730.72;6137522;22;97169;-81
2024/02/21 02:59:35;;;;;;;9.50;4.88;;;;;;;9.06;67.39;100721.31;6136837;22;96807;-82
2024/02/21 03:02:01;;;;;;;15.40;6.35;;;;;;;9.01;67.34;100725.78;6161608;22;101084;-81
2024/02/21 03:04:26;;;;;;;15.50;5.75;;;;;;;9.07;67.23;100709.94;6161627;22;101062;-80
2024/02/21 03:06:52;;;;;;;16.85;5.45;;;;;;;9.14;67.45;100729.88;6161336;22;97235;-81
2024/02/21 03:09:18;;;;;;;17.40;5.50;;;;;;;9.05;67.20;100702.13;6161973;22;97035;-81
2024/02/21 03:11:44;;;;;;;14.57;5.70;;;;;;;9.03;67.09;100710.91;6187154;22;97669;-80
2024/02/21 03:14:10;;;;;;;15.48;6.05;;;;;;;9.11;67.33;100727.31;6161502;22;100941;-81
2024/02/21 03:16:36;;;;;;;15.15;5.30;;;;;;;9.06;66.77;100706.44;6162493;22;96897;-81
2024/02/21 03:19:01;;;;;;;14.32;5.43;;;;;;;9.13;67.17;100704.56;6156781;22;97239;-81
2024/02/21 03:21:27;;;;;;;15.00;5.30;;;;;;;9.06;67.06;100700.34;6158098;22;98345;-81
2024/02/21 03:23:52;;;;;;;17.80;5.88;;;;;;;9.09;67.09;100704.66;6157564;22;101321;-81
2024/02/21 03:26:18;;;;;;;18.23;5.45;;;;;;;9.26;66.63;100715.63;6133058;22;96639;-81
2024/02/21 03:28:46;;;;;;;15.65;6.22;;;;;;;8.94;66.61;100664.81;6157804;22;97050;-81
2024/02/21 03:31:13;;;;;;;14.15;5.63;;;;;;;9.27;66.93;100712.09;6157374;22;101258;-81
2024/02/21 03:33:40;;;;;;;18.45;6.22;;;;;;;9.12;66.54;100683.66;6131986;22;101319;-81
2024/02/21 03:36:06;;;;;;;13.93;6.30;;;;;;;9.16;66.61;100688.78;6158260;22;96687;-80
2024/02/21 03:38:31;;;;;;;13.90;5.35;;;;;;;9.15;66.19;100692.28;6157039;22;97134;-81
2024/02/21 03:40:57;;;;;;;11.88;5.75;;;;;;;9.14;66.47;100687.97;6157527;22;97594;-81
2024/02/21 03:43:22;;;;;;;13.52;5.15;;;;;;;9.23;66.32;100693.00;6157658;22;100965;-81
2024/02/21 03:45:48;;;;;;;17.80;5.97;;;;;;;9.17;66.29;100685.28;6182957;22;96662;-81
2024/02/21 03:48:13;;;;;;;14.65;6.88;;;;;;;9.23;65.88;100706.09;6133196;22;96940;-81
2024/02/21 03:50:39;;;;;;;15.88;5.93;;;;;;;9.13;66.17;100677.50;6156315;22;101470;-81
2024/02/21 03:53:04;;;;;;;20.05;5.80;;;;;;;9.20;65.99;100690.44;6183440;22;98511;-81
2024/02/21 03:55:30;;;;;;;17.45;6.65;;;;;;;9.26;66.50;100694.69;6158089;22;96645;-81
2024/02/21 03:57:55;;;;;;;16.45;6.13;;;;;;;8.94;65.96;100662.22;6158457;22;96989;-81
2024/02/21 04:00:21;;;;;;;20.40;5.85;;;;;;;9.18;66.59;100696.59;6156709;22;100854;-81
2024/02/21 04:02:47;;;;;;;13.93;4.88;;;;;;;8.90;66.58;100664.91;6158073;22;97256;-81
2024/02/21 04:05:16;;;;;;;11.50;5.20;;;;;;;9.13;66.31;100696.69;6183426;22;97202;-82
2024/02/21 04:07:42;;;;;;;12.63;5.25;;;;;;;8.97;66.13;100650.81;6158130;22;97007;-80
2024/02/21 04:10:08;;;;;;;17.95;5.82;;;;;;;9.25;65.34;100692.94;6132007;22;101222;-81
2024/02/21 04:12:34;;;;;;;15.32;4.93;;;;;;;9.12;65.60;100658.31;6183147;22;97433;-81
2024/02/21 04:14:59;;;;;;;14.82;4.88;;;;;;;9.23;65.81;100677.28;6132715;22;97271;-80
2024/02/21 04:17:25;;;;;;;12.43;5.32;;;;;;;9.34;65.60;100686.63;6133494;22;96827;-81
2024/02/21 04:19:50;;;;;;;17.17;6.88;;;;;;;9.41;65.36;100690.84;6131725;22;101770;-81
2024/02/21 04:22:16;;;;;;;12.20;5.10;;;;;;;9.37;65.60;100673.47;6158118;22;97591;-81
2024/02/21 04:24:41;;;;;;;16.38;6.13;;;;;;;9.20;65.42;100650.28;6133017;22;96740;-81
2024/02/21 04:27:07;;;;;;;11.25;4.93;;;;;;;9.35;65.48;100670.03;6133488;22;97098;-81
2024/02/21 04:29:33;;;;;;;15.60;5.38;;;;;;;9.34;65.45;100669.19;6131741;22;101430;-81
2024/02/21 04:31:59;;;;;;;12.23;4.55;;;;;;;9.23;65.25;100665.94;6132629;22;101595;-81
2024/02/21 04:34:24;;;;;;;11.63;5.18;;;;;;;9.07;65.20;100626.13;6158502;22;96851;-82
2024/02/21 04:36:49;;;;;;;15.70;5.05;;;;;;;9.35;64.89;100652.53;6132698;22;97610;-80
2024/02/21 04:39:15;;;;;;;12.65;5.20;;;;;;;9.30;65.29;100660.50;6132009;22;101367;-81
2024/02/21 04:41:40;;;;;;;17.45;5.70;;;;;;;9.26;65.21;100660.63;6157401;22;97561;-81
2024/02/21 04:44:06;;;;;;;13.40;5.68;;;;;;;9.20;65.21;100645.91;6132665;22;97126;-81
2024/02/21 04:46:31;;;;;;;11.18;5.07;;;;;;;9.33;65.09;100649.09;6133288;22;97073;-81
2024/02/21 04:48:57;;;;;;;13.48;5.00;;;;;;;9.32;64.79;100649.16;6157099;22;101818;-81
2024/02/21 04:51:23;;;;;;;13.13;5.15;;;;;;;9.11;65.03;100638.28;6132003;22;101492;-81
2024/02/21 04:53:48;;;;;;;20.63;5.95;;;;;;;9.20;65.52;100653.75;6132498;22;96657;-80
2024/02/21 04:56:14;;;;;;;15.85;5.18;;;;;;;9.17;65.35;100640.75;6133345;22;96740;-81
2024/02/21 04:58:39;;;;;;;14.77;5.25;;;;;;;9.23;65.37;100651.06;6107421;22;101562;-80
2024/02/21 05:01:05;;;;;;;16.08;4.97;;;;;;;9.28;65.36;100657.06;6131795;22;101521;-80
2024/02/21 05:03:30;;;;;;;10.15;4.90;;;;;;;9.28;65.30;100657.06;6132618;22;96995;-81
2024/02/21 05:05:56;;;;;;;13.63;5.38;;;;;;;8.98;64.73;100616.72;6132898;22;96957;-81
2024/02/21 05:08:21;;;;;;;17.77;4.43;;;;;;;9.10;65.13;100638.28;6131994;22;101578;-82
2024/02/21 05:10:47;;;;;;;12.18;4.95;;;;;;;9.02;64.43;100602.69;6131851;22;97375;-81
2024/02/21 05:13:12;;;;;;;14.32;4.80;;;;;;;9.14;64.58;100625.09;6108386;22;96755;-82
2024/02/21 05:15:38;;;;;;;12.95;5.45;;;;;;;9.19;64.99;100645.94;6132890;22;97097;-81
2024/02/21 05:18:03;;;;;;;9.32;4.80;;;;;;;9.17;64.73;100634.66;6132002;22;98027;-81
2024/02/21 05:20:29;;;;;;;16.35;5.30;;;;;;;9.20;64.77;100630.19;6156925;22;101554;-81
2024/02/21 05:22:54;;;;;;;16.10;5.32;;;;;;;9.27;64.80;100639.63;6183621;22;96751;-82
2024/02/21 05:25:20;;;;;;;11.55;5.10;;;;;;;9.22;64.98;100630.13;6183129;22;96731;-81
2024/02/21 05:27:45;;;;;;;15.85;5.72;;;;;;;9.25;64.70;100637.94;6132551;22;101446;-82
2024/02/21 05:30:11;;;;;;;8.80;4.43;;;;;;;9.15;64.41;100610.25;6131583;22;101623;-81
2024/02/21 05:32:37;;;;;;;13.30;4.68;;;;;;;9.22;64.15;100631.03;6185234;22;96709;-82
2024/02/21 05:35:03;;;;;;;10.88;5.15;;;;;;;9.11;64.46;100603.38;6181470;22;97172;-81
2024/02/21 05:37:28;;;;;;;9.68;4.07;;;;;;;9.01;64.48;100595.69;6155942;22;98644;-83
2024/02/21 05:39:54;;;;;;;11.60;4.13;;;;;;;9.28;64.32;100627.41;6131651;22;101408;-82
2024/02/21 05:42:20;;;;;;;12.07;5.00;;;;;;;9.27;64.42;100621.28;6131200;22;96711;-83
2024/02/21 05:44:45;;;;;;;13.77;4.63;;;;;;;9.19;64.40;100630.22;6155210;22;97127;-83
2024/02/21 05:47:12;;;;;;;13.88;4.53;;;;;;;9.18;63.92;100621.50;6131112;22;101811;-84
2024/02/21 05:49:37;;;;;;;8.50;4.13;;;;;;;9.15;64.41;100613.72;6156067;22;101720;-81
2024/02/21 05:52:04;;;;;;;13.05;5.45;;;;;;;9.28;63.85;100620.41;6183042;22;96741;-82
2024/02/21 05:54:29;;;;;;;10.98;4.47;;;;;;;9.12;64.02;100603.31;6183616;22;96785;-82
2024/02/21 05:56:55;;;;;;;12.40;4.40;;;;;;;9.29;63.91;100614.25;6182982;22;101570;-82
2024/02/21 05:59:20;;;;;;;8.93;3.80;;;;;;;9.12;64.06;100595.47;6131426;22;101794;-75
2024/02/21 06:01:56;;;;;;;11.40;4.18;;;;;;;9.21;64.34;100623.19;6156510;22;96797;-78
2024/02/21 06:04:21;;;;;;;11.77;4.63;;;;;;;9.11;64.14;100598.97;6131550;22;97218;-75
2024/02/21 06:06:47;;;;;;;12.30;4.30;;;;;;;9.30;63.80;100621.19;6155793;22;97425;-82
2024/02/21 06:09:12;;;;;;;10.90;4.20;;;;;;;9.28;63.42;100620.41;6130572;22;101199;-76
2024/02/21 06:11:37;;;;;;;10.52;4.30;;;;;;;9.33;63.88;100619.41;6156461;22;96697;-84
2024/02/21 06:14:03;;;;;;;15.65;5.10;;;;;;;9.30;63.69;100623.81;6156436;22;96806;-84
2024/02/21 06:16:28;;;;;;;9.20;4.15;;;;;;;9.10;63.65;100592.00;6130718;22;101633;-84
2024/02/21 06:18:54;;;;;;;12.85;4.57;;;;;;;9.26;63.54;100613.47;6180937;22;97567;-84
2024/02/21 06:21:20;;;;;;;13.55;4.97;;;;;;;9.36;63.02;100616.72;6157461;22;96723;-83
2024/02/21 06:23:45;;;;;;;13.02;4.80;;;;;;;9.32;63.60;100615.94;6157429;22;96940;-84
2024/02/21 06:26:11;;;;;;;15.43;4.60;;;;;;;9.17;63.17;100590.97;6132034;22;101487;-83
2024/02/21 06:28:37;;;;;;;15.10;4.72;;;;;;;9.28;62.90;100607.31;6131253;22;101571;-83
2024/02/21 06:31:02;;;;;;;13.43;5.13;;;;;;;9.39;63.22;100619.25;6157165;22;96876;-84
2024/02/21 06:33:28;;;;;;;8.30;4.38;;;;;;;9.43;63.04;100613.94;6157244;22;97081;-85
2024/02/21 06:35:53;;;;;;;11.95;4.30;;;;;;;9.43;62.83;100607.84;6156780;22;101605;-84
2024/02/21 06:38:19;;;;;;;11.73;4.28;;;;;;;9.30;63.16;100597.63;6155616;22;97529;-84
2024/02/21 06:40:49;;;;;;;16.35;5.32;;;;;;;9.45;63.07;100616.50;6157020;22;96742;-78
2024/02/21 06:43:17;;;;;;;10.05;4.68;;;;;;;9.48;63.26;100613.78;6155995;22;96882;-83
2024/02/21 06:45:42;;;;;;;12.60;5.28;;;;;;;9.44;63.31;100622.66;6156777;22;97683;-84
2024/02/21 06:48:08;;;;;;;14.18;4.88;;;;;;;9.42;63.37;100624.44;6156863;22;100870;-83
2024/02/21 06:50:34;;;;;;;18.45;5.65;;;;;;;9.47;62.64;100615.56;6131817;22;96794;-83
2024/02/21 06:52:59;;;;;;;15.80;5.43;;;;;;;9.52;63.21;100618.94;6131998;22;96894;-84
2024/02/21 06:55:25;;;;;;;9.90;4.60;;;;;;;9.52;63.08;100615.47;6157650;22;101308;-83
2024/02/21 06:57:50;;;;;;;13.52;5.05;;;;;;;9.51;63.25;100604.13;6157739;22;100929;-84
2024/02/21 07:00:16;;;;;;;11.20;4.55;;;;;;;9.57;62.54;100612.69;6133420;22;97464;-84
2024/02/21 07:02:42;;;;;;;14.10;6.05;;;;;;;9.51;62.76;100605.84;6183317;22;97320;-84
2024/02/21 07:05:08;;;;;;;13.43;5.22;;;;;;;9.47;63.53;100606.84;6157718;22;98060;-83
2024/02/21 07:07:35;;;;;;;12.15;4.78;;;;;;;9.44;63.21;100606.91;6183943;22;97803;-84
2024/02/21 07:10:00;;;;;;;15.73;5.30;;;;;;;9.49;63.46;100618.16;6155201;22;96798;-84
2024/02/21 07:12:26;;;;;;;21.60;6.25;;;;;;;9.54;63.85;100613.66;6157042;22;97464;-76
2024/02/21 07:14:51;;;;;;;19.05;5.05;;;;;;;9.46;63.70;100589.41;6156488;22;100991;-76
2024/02/21 07:17:17;;;;;;;15.25;5.60;;;;;;;9.42;64.24;100606.09;6156624;22;101020;-78
2024/02/21 07:19:42;;;;;;;15.10;5.25;;;;;;;9.36;64.21;100598.38;6181197;22;96704;-76
2024/02/21 07:22:08;;;;;;;15.40;6.38;;;;;;;9.53;64.18;100610.16;6157421;22;96921;-76
2024/02/21 07:24:34;;;;;;;13.10;5.35;;;;;;;9.58;64.98;100614.44;6156633;22;101958;-80
2024/02/21 07:27:04;;;;;;;16.15;5.75;;;;;;;9.52;64.61;100584.88;6182652;22;98035;-81
2024/02/21 07:29:30;;;;;;;14.73;5.60;;;;;;;9.63;64.75;100604.69;6131897;22;96827;-81
2024/02/21 07:31:56;;;;;;;15.00;5.50;;;;;;;9.51;65.09;100588.41;6182686;22;96828;-82
2024/02/21 07:34:21;;;;;;;15.80;5.50;;;;;;;9.69;65.13;100609.78;6128900;22;101685;-83
2024/02/21 07:36:47;;;;;;;16.10;5.13;;;;;;;9.68;64.95;100601.03;6156186;22;101174;-83
2024/02/21 07:39:12;;;;;;;17.45;5.57;;;;;;;9.60;65.49;100583.78;6156319;22;97076;-81
2024/02/21 07:41:39;;;;;;;19.25;4.93;;;;;;;9.70;65.67;100587.91;6157413;22;96678;-82
2024/02/21 07:44:04;;;;;;;13.07;5.07;;;;;;;9.66;65.38;100578.41;6156879;22;101887;-82
2024/02/21 07:46:30;;;;;;;19.98;6.07;;;;;;;9.55;65.59;100554.25;6157526;22;99842;-81
2024/02/21 07:48:56;;;;;;;18.88;6.10;;;;;;;9.74;65.60;100581.69;6157180;22;96752;-80
2024/02/21 07:51:21;;;;;;;16.75;4.90;;;;;;;9.74;65.51;100581.69;6183250;22;97167;-81
2024/02/21 07:53:47;;;;;;;12.38;5.10;;;;;;;9.62;65.14;100550.56;6157439;22;101589;-82
2024/02/21 07:56:16;;;;;;;20.02;6.55;;;;;;;9.67;65.43;100564.41;6157922;22;98344;-79
2024/02/21 07:58:42;;;;;;;16.50;6.43;;;;;;;9.63;64.72;100554.88;6182319;22;97372;-80
2024/02/21 08:01:08;;;;;;;14.73;5.35;;;;;;;9.91;65.23;100579.47;6156540;22;96952;-79
2024/02/21 08:03:33;;;;;;;18.05;5.63;;;;;;;9.81;64.99;100577.16;6156032;22;97440;-78
2024/02/21 08:05:59;;;;;;;20.58;6.15;;;;;;;9.77;64.61;100560.63;6156476;22;101530;-78
2024/02/21 08:08:24;;;;;;;20.50;6.95;;;;;;;9.73;65.41;100569.47;6156181;22;96941;-79
2024/02/21 08:10:50;;;;;;;16.70;5.50;;;;;;;9.80;64.79;100559.69;6157042;22;96807;-78
2024/02/21 08:13:16;;;;;;;22.33;5.55;;;;;;;9.86;64.57;100556.88;6131541;22;101781;-78
2024/02/21 08:15:43;;;;;;;13.98;5.72;;;;;;;9.91;64.03;100549.75;6181697;22;101093;-79
2024/02/21 08:18:09;;;;;;;17.20;6.35;;;;;;;9.95;64.37;100548.78;6155779;22;98646;-78
2024/02/21 08:20:35;;;;;;;15.38;5.70;;;;;;;10.01;64.63;100571.38;6182509;22;96635;-78
2024/02/21 08:23:00;;;;;;;15.32;6.03;;;;;;;10.03;64.93;100566.91;6181425;22;97373;-78
2024/02/21 08:25:26;;;;;;;20.83;6.60;;;;;;;10.11;64.68;100567.56;6157208;22;98256;-78
2024/02/21 08:27:53;;;;;;;18.75;5.28;;;;;;;10.17;64.33;100554.28;6156802;22;97184;-78
2024/02/21 08:30:20;;;;;;;20.27;5.90;;;;;;;10.08;64.21;100558.03;6130953;22;97000;-80
2024/02/21 08:32:45;;;;;;;14.82;6.50;;;;;;;9.89;64.48;100531.47;6156300;22;98187;-78
2024/02/21 08:35:12;;;;;;;16.20;5.75;;;;;;;9.94;64.20;100541.81;6131909;22;101631;-78
2024/02/21 08:37:37;;;;;;;17.85;6.22;;;;;;;10.12;64.58;100550.91;6155960;22;97028;-80
2024/02/21 08:40:08;;;;;;;16.70;5.93;;;;;;;10.19;64.79;100545.47;6156828;22;96876;-78
2024/02/21 08:42:37;;;;;;;20.30;5.78;;;;;;;10.11;64.65;100536.09;6156974;22;101965;-78
2024/02/21 08:45:03;;;;;;;18.65;6.75;;;;;;;10.20;64.39;100538.44;6156649;22;100727;-78
2024/02/21 08:47:29;;;;;;;21.10;7.38;;;;;;;10.32;64.03;100548.59;6172973;22;97212;-79
2024/02/21 08:49:54;;;;;;;16.20;5.80;;;;;;;10.22;63.95;100541.91;6173501;22;97092;-80
2024/02/21 08:52:20;;;;;;;21.20;7.30;;;;;;;10.24;64.27;100550.59;6149550;22;101136;-82
2024/02/21 08:54:45;;;;;;;18.20;8.02;;;;;;;10.10;64.38;100531.75;6148820;22;101279;-78
2024/02/21 08:57:13;;;;;;;18.70;5.85;;;;;;;10.08;64.32;100542.28;6146637;22;97658;-79
2024/02/21 08:59:39;;;;;;;20.80;6.45;;;;;;;10.01;64.14;100519.78;6148549;22;97284;-79
2024/02/21 09:02:07;;;;;;;17.23;6.55;;;;;;;10.11;63.98;100528.22;6153786;22;101481;-79
2024/02/21 09:04:33;;;;;;;21.08;6.85;;;;;;;10.17;64.20;100533.28;6157020;22;101203;-83
2024/02/21 09:06:58;;;;;;;18.45;6.22;;;;;;;10.13;64.35;100529.91;6156174;22;96763;-84
2024/02/21 09:09:24;;;;;;;20.10;6.88;;;;;;;10.38;64.01;100539.69;6157383;22;96779;-82
2024/02/21 09:11:49;;;;;;;19.02;6.88;;;;;;;10.22;63.80;100496.44;6131171;22;100984;-82
2024/02/21 09:14:15;;;;;;;18.13;6.07;;;;;;;10.42;63.81;100529.06;6132083;22;101689;-82
2024/02/21 09:16:41;;;;;;;19.80;7.63;;;;;;;10.27;63.40;100500.69;6156458;22;96711;-83
2024/02/21 09:19:10;;;;;;;20.70;7.55;;;;;;;10.42;63.77;100515.97;6182401;22;97443;-83
2024/02/21 09:21:36;;;;;;;17.42;6.93;;;;;;;10.51;63.55;100527.94;6181140;22;98576;-83
2024/02/21 09:24:02;;;;;;;18.63;6.32;;;;;;;10.29;63.78;100511.97;6157742;22;98031;-83
2024/02/21 09:26:28;;;;;;;20.10;6.72;;;;;;;10.26;63.85;100519.91;6131993;22;96833;-84
2024/02/21 09:28:53;;;;;;;17.63;6.75;;;;;;;10.20;63.98;100499.09;6183147;22;96981;-83
2024/02/21 09:31:19;;;;;;;17.70;6.45;;;;;;;10.20;64.59;100512.22;6156020;22;98004;-78
2024/02/21 09:33:45;;;;;;;18.95;6.88;;;;;;;10.22;65.16;100518.28;6181353;22;97829;-80
2024/02/21 09:36:10;;;;;;;20.63;6.78;;;;;;;10.23;64.74;100519.13;6156880;22;96698;-81
2024/02/21 09:38:36;;;;;;;17.27;6.55;;;;;;;10.31;64.51;100515.41;6181975;22;96932;-80
2024/02/21 09:41:17;;;;;;;21.80;7.05;;;;;;;10.33;64.89;100536.38;6181162;22;97888;-76
2024/02/21 09:43:45;;;;;;;14.55;6.35;;;;;;;10.12;64.49;100495.84;6182268;22;97704;-82
2024/02/21 09:46:18;;;;;;;18.48;7.03;;;;;;;10.15;64.56;100508.84;6157854;22;97212;-82
2024/02/21 09:49:14;;;;;;;14.98;5.78;;;;;;;10.26;64.96;100519.91;6157647;22;96847;-82
2024/02/21 09:51:40;;;;;;;18.35;6.22;;;;;;;10.29;64.67;100506.72;6115302;22;98490;-81
2024/02/21 09:54:07;;;;;;;20.38;7.07;;;;;;;10.07;64.79;100472.38;6128840;22;101199;-82
2024/02/21 09:56:33;;;;;;;15.77;6.13;;;;;;;10.18;64.69;100493.03;6128822;22;96767;-83
2024/02/21 09:58:58;;;;;;;18.60;6.78;;;;;;;10.43;64.40;100525.53;6153763;22;96928;-85
2024/02/21 10:01:24;;;;;;;16.92;6.53;;;;;;;10.38;64.21;100516.09;6130982;22;101130;-81
2024/02/21 10:03:49;;;;;;;20.02;6.53;;;;;;;10.30;64.47;100525.97;6181675;22;97913;-82
2024/02/21 10:06:15;;;;;;;16.95;7.00;;;;;;;10.23;64.51;100517.38;6157557;22;96708;-82
2024/02/21 10:08:40;;;;;;;17.48;6.80;;;;;;;10.16;64.25;100507.97;6131572;22;96908;-81
2024/02/21 10:11:08;;;;;;;14.13;6.00;;;;;;;10.14;64.08;100515.88;6131478;22;101472;-82
2024/02/21 10:13:34;;;;;;;18.70;7.22;;;;;;;10.17;64.27;100520.16;6158639;22;97514;-83
2024/02/21 10:16:07;;;;;;;15.88;6.03;;;;;;;9.97;64.29;100499.75;6130916;22;97113;-83
2024/02/21 10:18:33;;;;;;;20.55;6.85;;;;;;;9.95;64.27;100501.59;6181788;22;97566;-83
2024/02/21 10:21:06;;;;;;;18.02;7.32;;;;;;;10.23;64.37;100516.50;6129323;22;100997;-83
2024/02/21 10:23:45;;;;;;;18.35;6.65;;;;;;;10.08;64.35;100475.84;6182286;22;97913;-84
2024/02/21 10:26:11;;;;;;;15.27;6.38;;;;;;;10.23;64.16;100509.50;6130795;22;96735;-81
2024/02/21 10:28:41;;;;;;;20.52;6.20;;;;;;;10.15;64.11;100509.75;6181513;22;97377;-83
2024/02/21 10:31:08;;;;;;;16.33;5.97;;;;;;;10.18;64.42;100519.25;6131541;22;101213;-82
2024/02/21 10:33:34;;;;;;;12.15;6.15;;;;;;;10.00;64.23;100493.56;6180906;22;100290;-82
2024/02/21 10:36:12;;;;;;;15.77;6.65;;;;;;;10.20;64.49;100514.84;6156698;22;96740;-82
2024/02/21 10:38:38;;;;;;;18.80;5.80;;;;;;;10.26;64.46;100521.66;6181554;22;97527;-83
2024/02/21 10:41:07;;;;;;;18.27;6.00;;;;;;;10.23;64.58;100519.13;6180356;22;97681;-84
2024/02/21 10:43:40;;;;;;;15.43;6.53;;;;;;;10.06;64.64;100478.50;6130286;22;101333;-83
2024/02/21 10:46:08;;;;;;;16.00;6.75;;;;;;;10.27;65.35;100512.91;6131676;22;96861;-83
2024/02/21 10:48:45;;;;;;;11.95;6.40;;;;;;;10.04;65.30;100480.34;6155885;22;96886;-83
2024/02/21 10:51:20;;;;;;;16.58;6.13;;;;;;;10.23;65.57;100508.66;6152947;22;97537;-86
2024/02/21 10:53:55;;;;;;;15.75;7.10;;;;;;;10.37;65.19;100494.22;6155478;22;101663;-81
2024/02/21 10:56:31;;;;;;;12.68;6.30;;;;;;;10.40;65.08;100488.03;6182168;22;96788;-81
2024/02/21 10:59:01;;;;;;;11.93;5.72;;;;;;;10.31;64.91;100456.84;6130684;22;96993;-81
2024/02/21 11:01:29;;;;;;;16.35;7.38;;;;;;;10.36;64.88;100474.16;6155876;22;97620;-81
2024/02/21 11:03:56;;;;;;;15.40;5.88;;;;;;;10.37;64.51;100470.63;6180543;22;97358;-74
2024/02/21 11:06:22;;;;;;;13.32;5.85;;;;;;;10.29;64.48;100440.28;6181835;22;97313;-79
2024/02/21 11:09:05;;;;;;;8.88;5.10;;;;;;;10.49;64.18;100471.16;6154461;22;96966;-79
2024/02/21 11:11:35;;;;;;;14.60;5.18;;;;;;;10.53;63.91;100473.63;6129491;22;101073;-78
2024/02/21 11:14:17;;;;;;;9.57;5.13;;;;;;;10.51;63.83;100467.56;6131151;22;97257;-78
2024/02/21 11:16:43;;;;;;;10.15;5.75;;;;;;;10.48;64.58;100465.03;6182004;22;96705;-78
2024/02/21 11:19:30;;;;;;;12.45;6.05;;;;;;;10.47;64.42;100457.19;6200458;22;97348;-79
2024/02/21 11:21:58;;;;;;;20.88;6.40;;;;;;;10.38;64.84;100448.75;6182795;22;97947;-77
2024/02/21 11:24:31;;;;;;;18.20;7.47;;;;;;;10.37;65.33;100439.13;6158417;22;100423;-80
2024/02/21 11:27:09;;;;;;;14.40;6.60;;;;;;;10.56;64.75;100451.66;6157517;22;97045;-78
2024/02/21 11:29:51;;;;;;;20.73;9.43;;;;;;;10.58;65.14;100457.72;6158580;22;96776;-78
2024/02/21 11:32:20;;;;;;;22.83;10.43;;;;;;;10.56;64.70;100426.28;6183247;22;97796;-80
2024/02/21 11:35:03;;;;;;;23.48;11.73;;;;;;;10.49;64.94;100439.66;6207796;22;97977;-80
2024/02/21 11:37:30;;;;;;;26.20;12.85;;;;;;;10.42;65.16;100434.59;6182282;22;96865;-81
2024/02/21 11:39:56;;;;;;;20.23;8.30;;;;;;;10.45;65.31;100431.03;6183380;22;96815;-79
2024/02/21 11:42:22;;;;;;;15.30;7.28;;;;;;;10.54;65.12;100419.38;6160215;22;101889;-78
2024/02/21 11:44:48;;;;;;;40.80;15.20;;;;;;;10.63;64.57;100413.81;6213282;22;97234;-80
2024/02/21 11:47:14;;;;;;;28.58;9.95;;;;;;;10.60;64.64;100419.16;6181346;22;97339;-85
2024/02/21 11:49:49;;;;;;;28.20;9.32;;;;;;;10.68;64.78;100421.56;6153260;22;97462;-84
2024/02/21 11:52:20;;;;;;;15.50;8.10;;;;;;;10.63;64.74;100416.44;6152926;22;99808;-84
2024/02/21 11:54:46;;;;;;;15.40;7.47;;;;;;;10.67;64.70;100415.44;6178995;22;101315;-84
2024/02/21 11:57:11;;;;;;;14.60;7.32;;;;;;;10.75;64.93;100416.03;6153841;22;97294;-84
2024/02/21 11:59:42;;;;;;;13.40;6.90;;;;;;;10.71;64.37;100416.22;6127898;22;97338;-84
2024/02/21 12:02:08;;;;;;;16.60;7.10;;;;;;;10.68;64.58;100409.28;6178738;22;98552;-84
2024/02/21 12:04:34;;;;;;;27.02;10.48;;;;;;;10.66;64.25;100408.47;6154626;22;101517;-85
2024/02/21 12:06:59;;;;;;;63.67;22.55;;;;;;;10.63;64.86;100413.81;6152279;22;96650;-84
2024/02/21 12:09:26;;;;;;;39.35;15.35;;;;;;;10.81;65.07;100420.22;6153617;22;97255;-84
2024/02/21 12:12:06;;;;;;;115.03;39.70;;;;;;;10.87;64.74;100407.75;6154038;22;100103;-86
2024/02/21 12:14:33;;;;;;;55.55;22.60;;;;;;;10.92;64.60;100396.25;6154756;22;101410;-84
2024/02/21 12:16:59;;;;;;;47.00;19.17;;;;;;;10.99;64.45;100377.56;6151360;22;97254;-85
2024/02/21 12:19:25;;;;;;;91.07;39.08;;;;;;;11.05;64.35;100376.50;6127683;22;97234;-75
2024/02/21 12:21:51;;;;;;;63.67;28.63;;;;;;;11.06;64.62;100378.22;6155708;22;97187;-76
2024/02/21 12:24:27;;;;;;;13.93;6.00;;;;;;;10.88;63.97;100356.09;6131646;22;101460;-84
2024/02/21 12:26:54;;;;;;;11.98;5.10;;;;;;;11.01;62.79;100374.91;6103789;22;96837;-81
2024/02/21 12:29:20;;;;;;;9.43;4.78;;;;;;;10.91;62.14;100356.00;6156619;22;97299;-85
2024/02/21 12:31:45;;;;;;;12.35;4.88;;;;;;;11.09;61.69;100365.00;6130917;22;101215;-82
2024/02/21 12:34:11;;;;;;;10.10;4.78;;;;;;;11.19;61.58;100370.75;6156701;22;97812;-83
2024/02/21 12:36:44;;;;;;;15.80;7.07;;;;;;;11.13;61.73;100353.44;6106648;22;97089;-82